createdAt,value
2018-08-19T00:00:53.813Z,14.07
2018-08-19T00:03:22.823Z,17.00
2018-08-19T00:05:51.478Z,11.87
2018-08-19T00:08:20.075Z,21.70
2018-08-19T00:11:00.636Z,13.53
2018-08-19T00:13:29.248Z,12.77
2018-08-19T00:15:58.009Z,8.13
2018-08-19T00:18:26.587Z,9.87
2018-08-19T00:20:55.282Z,13.47
2018-08-19T00:23:23.955Z,11.17
2018-08-19T00:25:52.686Z,12.03
2018-08-19T00:28:21.747Z,13.33
2018-08-19T00:30:50.380Z,10.07
2018-08-19T00:33:19.125Z,9.43
2018-08-19T00:35:47.758Z,9.77
2018-08-19T00:38:16.822Z,12.80
2018-08-19T00:40:45.682Z,13.47
2018-08-19T00:43:14.258Z,16.07
2018-08-19T00:45:42.939Z,11.93
2018-08-19T00:48:11.806Z,10.13
2018-08-19T00:50:41.008Z,10.07
2018-08-19T00:53:10.718Z,10.10
2018-08-19T00:55:44.623Z,12.23
2018-08-19T00:58:14.891Z,9.60
2018-08-19T01:00:43.555Z,10.27
2018-08-19T01:03:12.475Z,9.27
2018-08-19T01:05:41.077Z,8.03
2018-08-19T01:08:11.393Z,10.17
2018-08-19T01:10:40.273Z,9.47
2018-08-19T01:13:09.342Z,9.57
2018-08-19T01:15:38.092Z,10.50
2018-08-19T01:18:06.719Z,13.40
2018-08-19T01:20:35.390Z,9.00
2018-08-19T01:23:04.049Z,13.53
2018-08-19T01:25:32.677Z,12.30
2018-08-19T01:28:01.363Z,8.33
2018-08-19T01:30:29.983Z,7.93
2018-08-19T01:32:58.626Z,11.53
2018-08-19T01:35:32.523Z,10.60
2018-08-19T01:38:01.510Z,14.90
2018-08-19T01:40:36.462Z,10.93
2018-08-19T01:43:06.491Z,8.00
2018-08-19T01:45:35.558Z,9.80
2018-08-19T01:48:04.119Z,9.27
2018-08-19T01:50:32.713Z,8.03
2018-08-19T01:53:01.328Z,8.40
2018-08-19T01:55:31.252Z,8.10
2018-08-19T01:58:00.000Z,7.70
2018-08-19T02:00:28.631Z,11.73
2018-08-19T02:03:00.731Z,8.73
2018-08-19T02:05:29.362Z,9.93
2018-08-19T02:07:59.898Z,10.20
2018-08-19T02:10:29.595Z,8.07
2018-08-19T02:12:58.782Z,8.13
2018-08-19T02:15:28.582Z,7.63
2018-08-19T02:18:05.328Z,7.47
2018-08-19T02:20:37.315Z,8.17
2018-08-19T02:23:07.570Z,7.77
2018-08-19T02:25:46.372Z,9.97
2018-08-19T02:28:19.648Z,8.37
2018-08-19T02:30:53.608Z,8.57
2018-08-19T02:33:23.498Z,7.93
2018-08-19T02:35:57.225Z,8.27
2018-08-19T02:38:26.144Z,9.60
2018-08-19T02:40:55.066Z,8.93
2018-08-19T02:43:24.157Z,7.67
2018-08-19T02:45:52.848Z,8.97
2018-08-19T02:48:35.533Z,8.97
2018-08-19T02:51:04.206Z,11.00
2018-08-19T02:53:32.736Z,7.57
2018-08-19T02:56:01.433Z,7.90
2018-08-19T02:58:30.127Z,8.70
2018-08-19T03:00:58.733Z,9.20
2018-08-19T03:03:27.376Z,8.33
2018-08-19T03:05:59.207Z,7.80
2018-08-19T03:08:28.271Z,7.90
2018-08-19T03:10:56.988Z,9.30
2018-08-19T03:13:25.563Z,7.80
2018-08-19T03:15:55.884Z,7.63
2018-08-19T03:18:24.507Z,7.80
2018-08-19T03:20:53.204Z,8.50
2018-08-19T03:23:22.158Z,8.43
2018-08-19T03:25:50.840Z,7.67
2018-08-19T03:28:19.450Z,8.43
2018-08-19T03:30:53.213Z,8.13
2018-08-19T03:33:21.981Z,7.80
2018-08-19T03:35:50.811Z,8.70
2018-08-19T03:38:19.312Z,7.77
2018-08-19T03:40:47.855Z,7.87
2018-08-19T03:43:16.347Z,7.43
2018-08-19T03:45:44.889Z,8.30
2018-08-19T03:48:13.381Z,7.43
2018-08-19T03:50:41.911Z,7.97
2018-08-19T03:53:10.552Z,8.87
2018-08-19T03:55:39.269Z,8.33
2018-08-19T03:58:09.133Z,8.20
2018-08-19T04:00:42.807Z,7.73
2018-08-19T04:03:18.662Z,7.53
2018-08-19T04:05:56.772Z,7.80
2018-08-19T04:08:58.901Z,7.57
2018-08-19T04:11:27.691Z,8.67
2018-08-19T04:13:56.285Z,8.00
2018-08-19T04:16:24.868Z,8.00
2018-08-19T04:19:01.364Z,7.43
2018-08-19T04:21:29.896Z,7.50
2018-08-19T04:23:58.425Z,7.77
2018-08-19T04:26:26.939Z,8.20
2018-08-19T04:28:55.510Z,7.53
2018-08-19T04:31:25.210Z,8.07
2018-08-19T04:33:54.954Z,8.90
2018-08-19T04:36:24.918Z,8.53
2018-08-19T04:38:53.473Z,7.80
2018-08-19T04:41:22.049Z,7.87
2018-08-19T04:43:50.671Z,8.70
2018-08-19T04:46:19.196Z,8.17
2018-08-19T04:48:48.668Z,7.73
2018-08-19T04:51:17.238Z,7.80
2018-08-19T04:53:45.800Z,7.87
2018-08-19T04:56:14.326Z,7.50
2018-08-19T04:58:42.825Z,7.97
2018-08-19T05:01:12.539Z,7.43
2018-08-19T05:03:43.071Z,8.50
2018-08-19T05:06:11.604Z,7.53
2018-08-19T05:08:40.123Z,7.70
2018-08-19T05:11:08.680Z,8.00
2018-08-19T05:13:37.327Z,7.30
2018-08-19T05:16:06.127Z,7.77
2018-08-19T05:18:34.690Z,7.60
2018-08-19T05:21:08.303Z,7.53
2018-08-19T05:23:36.859Z,7.70
2018-08-19T05:26:05.574Z,8.00
2018-08-19T05:28:34.177Z,7.10
2018-08-19T05:31:02.730Z,15.10
2018-08-19T05:33:31.270Z,8.43
2018-08-19T05:35:59.789Z,7.67
2018-08-19T05:38:31.365Z,8.30
2018-08-19T05:41:01.203Z,7.93
2018-08-19T05:43:30.594Z,7.17
2018-08-19T05:46:00.202Z,7.47
2018-08-19T05:48:28.736Z,7.70
2018-08-19T05:50:57.683Z,7.80
2018-08-19T05:53:26.197Z,7.57
2018-08-19T05:55:54.720Z,7.57
2018-08-19T05:58:23.240Z,7.90
2018-08-19T06:00:54.340Z,7.43
2018-08-19T06:03:23.051Z,7.67
2018-08-19T06:05:51.600Z,8.50
2018-08-19T06:08:20.242Z,8.57
2018-08-19T06:10:48.831Z,11.70
2018-08-19T06:13:17.418Z,8.00
2018-08-19T06:15:46.044Z,8.60
2018-08-19T06:18:14.508Z,7.90
2018-08-19T06:20:43.026Z,7.67
2018-08-19T06:23:11.541Z,7.57
2018-08-19T06:25:40.093Z,7.90
2018-08-19T06:28:08.674Z,8.27
2018-08-19T06:30:37.241Z,8.97
2018-08-19T06:33:05.795Z,13.47
2018-08-19T06:35:34.322Z,11.97
2018-08-19T06:38:02.951Z,15.13
2018-08-19T06:40:31.448Z,15.50
2018-08-19T06:43:00.126Z,12.80
2018-08-19T06:45:29.408Z,13.27
2018-08-19T06:47:58.019Z,10.73
2018-08-19T06:50:31.484Z,11.27
2018-08-19T06:53:00.005Z,11.53
2018-08-19T06:55:28.856Z,11.43
2018-08-19T06:57:58.395Z,10.43
2018-08-19T07:00:30.918Z,13.67
2018-08-19T07:03:00.667Z,11.97
2018-08-19T07:05:29.790Z,9.97
2018-08-19T07:07:58.295Z,11.93
2018-08-19T07:10:38.009Z,9.70
2018-08-19T07:13:11.039Z,9.30
2018-08-19T07:15:40.799Z,9.17
2018-08-19T07:18:11.161Z,8.77
2018-08-19T07:20:40.793Z,15.53
2018-08-19T07:23:10.991Z,9.40
2018-08-19T07:25:41.421Z,10.70
2018-08-19T07:28:10.927Z,11.10
2018-08-19T07:30:39.759Z,11.47
2018-08-19T07:33:08.603Z,10.40
2018-08-19T07:35:37.143Z,10.57
2018-08-19T07:38:05.675Z,10.30
2018-08-19T07:40:34.198Z,11.43
2018-08-19T07:43:02.846Z,9.67
2018-08-19T07:45:31.443Z,10.17
2018-08-19T07:47:59.973Z,13.17
2018-08-19T07:50:28.503Z,12.40
2018-08-19T07:52:57.042Z,9.83
2018-08-19T07:55:25.647Z,12.73
2018-08-19T07:57:54.149Z,9.73
2018-08-19T08:00:39.663Z,10.20
2018-08-19T08:03:08.322Z,12.00
2018-08-19T08:05:42.135Z,12.77
2018-08-19T08:08:10.673Z,9.53
2018-08-19T08:10:39.842Z,10.03
2018-08-19T08:13:10.400Z,12.57
2018-08-19T08:15:44.113Z,10.17
2018-08-19T08:18:13.006Z,11.90
2018-08-19T08:20:41.467Z,15.27
2018-08-19T08:23:20.382Z,16.23
2018-08-19T08:25:49.315Z,11.70
2018-08-19T08:28:18.007Z,20.07
2018-08-19T08:30:46.637Z,14.97
2018-08-19T08:33:15.103Z,13.93
2018-08-19T08:35:48.971Z,12.37
2018-08-19T08:38:17.694Z,13.40
2018-08-19T08:40:46.293Z,17.87
2018-08-19T08:43:14.698Z,14.40
2018-08-19T08:45:44.065Z,12.80
2018-08-19T08:48:12.731Z,17.37
2018-08-19T08:50:41.325Z,14.37
2018-08-19T08:53:09.834Z,11.03
2018-08-19T08:55:38.297Z,13.20
2018-08-19T08:58:07.087Z,19.93
2018-08-19T09:00:35.646Z,17.87
2018-08-19T09:03:04.157Z,13.40
2018-08-19T09:05:32.611Z,15.23
2018-08-19T09:08:01.194Z,15.30
2018-08-19T09:10:29.672Z,25.33
2018-08-19T09:12:58.156Z,16.30
2018-08-19T09:15:26.643Z,18.83
2018-08-19T09:17:55.116Z,16.40
2018-08-19T09:20:23.634Z,11.30
2018-08-19T09:22:52.131Z,18.53
2018-08-19T09:25:20.622Z,17.10
2018-08-19T09:27:49.085Z,14.13
2018-08-19T09:30:50.686Z,16.57
2018-08-19T09:33:19.166Z,13.13
2018-08-19T09:35:47.676Z,12.07
2018-08-19T09:38:19.545Z,18.97
2018-08-19T09:40:48.204Z,17.33
2018-08-19T09:43:16.958Z,16.67
2018-08-19T09:45:45.857Z,15.70
2018-08-19T09:48:14.944Z,14.47
2018-08-19T09:50:43.947Z,18.70
2018-08-19T09:53:12.568Z,12.33
2018-08-19T09:55:52.375Z,15.60
2018-08-19T09:58:22.079Z,20.90
2018-08-19T10:00:55.930Z,16.47
2018-08-19T10:03:24.447Z,14.77
2018-08-19T10:05:53.019Z,16.60
2018-08-19T10:08:23.682Z,14.13
2018-08-19T10:10:52.625Z,15.47
2018-08-19T10:13:21.229Z,16.70
2018-08-19T10:15:49.723Z,14.77
2018-08-19T10:18:18.198Z,18.40
2018-08-19T10:20:46.691Z,13.30
2018-08-19T10:23:15.176Z,18.30
2018-08-19T10:25:43.645Z,15.63
2018-08-19T10:28:12.107Z,20.50
2018-08-19T10:30:50.555Z,14.77
2018-08-19T10:33:21.355Z,14.13
2018-08-19T10:35:50.260Z,16.13
2018-08-19T10:38:18.790Z,18.70
2018-08-19T10:41:07.602Z,21.50
2018-08-19T10:43:36.127Z,27.27
2018-08-19T10:46:04.683Z,18.77
2018-08-19T10:48:33.208Z,25.63
2018-08-19T10:51:03.118Z,20.13
2018-08-19T10:53:31.658Z,20.90
2018-08-19T10:56:01.975Z,26.17
2018-08-19T10:58:30.637Z,17.90
2018-08-19T11:00:59.098Z,16.13
2018-08-19T11:03:27.612Z,16.97
2018-08-19T11:05:56.791Z,19.17
2018-08-19T11:08:25.297Z,21.30
2018-08-19T11:10:54.382Z,18.80
2018-08-19T11:13:24.320Z,19.43
2018-08-19T11:15:54.245Z,23.63
2018-08-19T11:18:37.533Z,26.13
2018-08-19T11:21:11.253Z,20.87
2018-08-19T11:23:42.174Z,29.93
2018-08-19T11:26:11.603Z,22.10
2018-08-19T11:28:55.813Z,21.60
2018-08-19T11:31:29.642Z,25.80
2018-08-19T11:34:00.458Z,27.77
2018-08-19T11:36:35.284Z,28.20
2018-08-19T11:39:06.070Z,26.17
2018-08-19T11:41:34.829Z,31.90
2018-08-19T11:44:06.810Z,19.17
2018-08-19T11:46:35.396Z,19.70
2018-08-19T11:49:11.329Z,16.07
2018-08-19T11:51:46.239Z,16.57
2018-08-19T11:54:15.807Z,20.17
2018-08-19T11:56:59.602Z,18.40
2018-08-19T11:59:36.310Z,20.13
2018-08-19T12:02:06.425Z,17.10
2018-08-19T12:04:34.887Z,13.63
2018-08-19T12:07:03.359Z,13.27
2018-08-19T12:09:31.833Z,14.27
2018-08-19T12:12:00.319Z,13.00
2018-08-19T12:14:28.924Z,12.13
2018-08-19T12:16:58.731Z,10.27
2018-08-19T12:19:28.563Z,10.83
2018-08-19T12:22:00.012Z,13.03
2018-08-19T12:24:34.628Z,11.73
2018-08-19T12:27:04.201Z,14.60
2018-08-19T12:29:33.730Z,10.60
2018-08-19T12:32:12.874Z,17.03
2018-08-19T12:34:50.366Z,11.80
2018-08-19T12:37:20.041Z,16.77
2018-08-19T12:39:48.864Z,12.70
2018-08-19T12:42:17.351Z,12.20
2018-08-19T12:44:53.403Z,14.03
2018-08-19T12:47:24.278Z,20.37
2018-08-19T12:50:03.755Z,13.30
2018-08-19T12:52:33.702Z,14.10
2018-08-19T12:55:05.251Z,10.23
2018-08-19T12:57:34.474Z,12.70
2018-08-19T13:00:10.491Z,19.37
2018-08-19T13:02:43.213Z,15.40
2018-08-19T13:05:12.192Z,18.43
2018-08-19T13:07:40.654Z,19.60
2018-08-19T13:10:09.424Z,17.60
2018-08-19T13:12:43.139Z,14.53
2018-08-19T13:15:11.647Z,21.30
2018-08-19T13:17:40.111Z,13.23
2018-08-19T13:20:09.099Z,17.23
2018-08-19T13:22:47.820Z,12.87
2018-08-19T13:25:16.518Z,11.87
2018-08-19T13:27:45.056Z,16.97
2018-08-19T13:30:13.562Z,15.30
2018-08-19T13:32:42.094Z,17.53
2018-08-19T13:35:10.600Z,13.43
2018-08-19T13:37:39.075Z,11.80
2018-08-19T13:40:09.254Z,15.90
2018-08-19T13:42:37.730Z,14.50
2018-08-19T13:45:11.544Z,11.10
2018-08-19T13:47:41.019Z,16.87
2018-08-19T13:50:09.598Z,15.83
2018-08-19T13:52:38.389Z,24.80
2018-08-19T13:55:09.705Z,19.07
2018-08-19T13:57:38.169Z,20.40
2018-08-19T14:00:10.423Z,29.73
2018-08-19T14:02:38.890Z,14.60
2018-08-19T14:05:07.399Z,19.07
2018-08-19T14:07:35.854Z,19.23
2018-08-19T14:10:05.314Z,19.10
2018-08-19T14:12:33.811Z,14.07
2018-08-19T14:15:02.286Z,18.43
2018-08-19T14:17:30.750Z,17.70
2018-08-19T14:19:59.223Z,18.67
2018-08-19T14:22:27.844Z,20.53
2018-08-19T14:24:56.320Z,14.77
2018-08-19T14:27:24.773Z,14.57
2018-08-19T14:29:53.274Z,16.13
2018-08-19T14:32:31.578Z,15.57
2018-08-19T14:35:01.731Z,15.37
2018-08-19T14:37:30.233Z,18.63
2018-08-19T14:39:59.541Z,21.63
2018-08-19T14:42:28.002Z,22.30
2018-08-19T14:44:57.620Z,22.00
2018-08-19T14:47:26.472Z,18.93
2018-08-19T14:49:55.460Z,12.20
2018-08-19T14:52:23.923Z,13.10
2018-08-19T14:54:52.379Z,17.87
2018-08-19T14:57:20.870Z,15.63
2018-08-19T14:59:49.334Z,14.93
2018-08-19T15:02:17.829Z,22.10
2018-08-19T15:04:47.483Z,10.73
2018-08-19T15:07:15.996Z,12.20
2018-08-19T15:09:50.098Z,11.93
2018-08-19T15:12:23.591Z,9.73
2018-08-19T15:14:52.610Z,8.90
2018-08-19T15:17:21.262Z,8.97
2018-08-19T15:19:51.709Z,14.03
2018-08-19T15:22:20.426Z,11.70
2018-08-19T15:24:49.151Z,9.40
2018-08-19T15:27:17.611Z,9.43
2018-08-19T15:29:48.197Z,7.90
2018-08-19T15:32:16.762Z,17.30
2018-08-19T15:34:45.327Z,7.03
2018-08-19T15:37:13.790Z,12.13
2018-08-19T15:39:42.278Z,12.33
2018-08-19T15:42:10.778Z,11.30
2018-08-19T15:44:39.272Z,7.40
2018-08-19T15:47:28.167Z,8.40
2018-08-19T15:50:09.601Z,10.60
2018-08-19T15:52:38.157Z,9.47
2018-08-19T15:55:06.748Z,6.00
2018-08-19T15:57:35.264Z,9.90
2018-08-19T16:00:03.775Z,8.33
2018-08-19T16:02:32.256Z,11.50
2018-08-19T16:05:02.787Z,8.80
2018-08-19T16:07:31.293Z,15.33
2018-08-19T16:09:59.799Z,7.47
2018-08-19T16:12:29.918Z,9.23
2018-08-19T16:14:58.397Z,13.03
2018-08-19T16:17:26.891Z,15.03
2018-08-19T16:19:55.391Z,11.47
2018-08-19T16:22:23.880Z,12.30
2018-08-19T16:24:52.359Z,12.03
2018-08-19T16:27:20.834Z,11.70
2018-08-19T16:29:49.321Z,10.70
2018-08-19T16:32:17.843Z,11.60
2018-08-19T16:34:46.320Z,13.93
2018-08-19T16:37:14.836Z,18.43
2018-08-19T16:39:43.324Z,10.67
2018-08-19T16:42:11.798Z,12.13
2018-08-19T16:44:40.327Z,9.23
2018-08-19T16:47:08.789Z,10.40
2018-08-19T16:49:37.269Z,13.33
2018-08-19T16:52:05.759Z,9.10
2018-08-19T16:54:34.252Z,8.50
2018-08-19T16:57:02.752Z,8.40
2018-08-19T16:59:31.232Z,9.80
2018-08-19T17:01:59.709Z,8.37
2018-08-19T17:04:28.180Z,8.47
2018-08-19T17:06:56.670Z,7.93
2018-08-19T17:09:25.163Z,8.93
2018-08-19T17:11:53.629Z,9.60
2018-08-19T17:14:22.110Z,13.30
2018-08-19T17:16:50.635Z,8.93
2018-08-19T17:19:19.097Z,8.70
2018-08-19T17:21:47.642Z,13.93
2018-08-19T17:24:16.122Z,10.33
2018-08-19T17:26:44.690Z,10.07
2018-08-19T17:29:19.509Z,11.67
2018-08-19T17:31:48.116Z,14.60
2018-08-19T17:34:19.986Z,16.63
2018-08-19T17:36:48.624Z,12.70
2018-08-19T17:39:20.654Z,10.57
2018-08-19T17:41:50.219Z,14.13
2018-08-19T17:44:18.700Z,10.00
2018-08-19T17:46:47.188Z,10.60
2018-08-19T17:49:19.798Z,9.67
2018-08-19T17:51:48.266Z,9.00
2018-08-19T17:54:22.051Z,10.67
2018-08-19T17:56:51.013Z,10.43
2018-08-19T17:59:19.591Z,9.67
2018-08-19T18:01:48.012Z,8.70
2018-08-19T18:04:16.527Z,10.10
2018-08-19T18:06:44.993Z,9.00
2018-08-19T18:09:14.963Z,8.53
2018-08-19T18:11:49.298Z,9.93
2018-08-19T18:14:17.830Z,14.13
2018-08-19T18:16:46.379Z,10.53
2018-08-19T18:19:14.858Z,13.90
2018-08-19T18:21:43.322Z,8.27
2018-08-19T18:24:11.830Z,10.23
2018-08-19T18:26:40.299Z,10.97
2018-08-19T18:29:08.767Z,8.73
2018-08-19T18:31:37.238Z,7.47
2018-08-19T18:34:08.590Z,10.60
2018-08-19T18:36:37.260Z,8.00
2018-08-19T18:39:09.411Z,10.07
2018-08-19T18:41:39.244Z,11.03
2018-08-19T18:44:09.154Z,8.03
2018-08-19T18:46:37.839Z,11.77
2018-08-19T18:49:13.110Z,9.80
2018-08-19T18:51:43.306Z,9.60
2018-08-19T18:54:31.629Z,9.27
2018-08-19T18:57:06.108Z,137.30
2018-08-19T18:59:34.626Z,105.53
2018-08-19T19:02:04.188Z,750.73
2018-08-19T19:04:32.683Z,821.00
2018-08-19T19:07:01.149Z,825.67
2018-08-19T19:09:37.774Z,890.63
2018-08-19T19:12:06.281Z,926.33
2018-08-19T19:14:34.754Z,983.67
2018-08-19T19:17:03.260Z,917.03
2018-08-19T19:19:36.737Z,931.47
2018-08-19T19:22:05.279Z,877.50
2018-08-19T19:24:37.814Z,897.67
2018-08-19T19:27:06.654Z,853.10
2018-08-19T19:29:35.155Z,452.50
2018-08-19T19:32:13.855Z,660.57
2018-08-19T19:34:42.327Z,632.93
2018-08-19T19:37:11.038Z,616.90
2018-08-19T19:39:39.561Z,553.43
2018-08-19T19:42:11.092Z,620.07
2018-08-19T19:44:39.571Z,610.03
2018-08-19T19:47:09.370Z,629.77
2018-08-19T19:49:46.688Z,641.90
2018-08-19T19:52:15.194Z,632.67
2018-08-19T19:54:43.670Z,629.73
2018-08-19T19:57:12.236Z,596.70
2018-08-19T19:59:40.750Z,616.40
2018-08-19T20:02:16.522Z,597.47
2018-08-19T20:04:45.415Z,559.23
2018-08-19T20:07:13.946Z,546.03
2018-08-19T20:09:42.465Z,528.33
2018-08-19T20:12:16.021Z,340.17
2018-08-19T20:14:49.299Z,257.63
2018-08-19T20:17:18.778Z,268.73
2018-08-19T20:19:47.254Z,280.57
2018-08-19T20:22:17.675Z,295.57
2018-08-19T20:24:46.487Z,268.77
2018-08-19T20:27:15.282Z,303.70
2018-08-19T20:29:43.765Z,274.90
2018-08-19T20:32:12.261Z,282.90
2018-08-19T20:34:40.759Z,289.30
2018-08-19T20:37:09.316Z,273.67
2018-08-19T20:39:37.893Z,255.43
2018-08-19T20:42:06.853Z,249.13
2018-08-19T20:44:37.305Z,275.53
2018-08-19T20:47:07.819Z,288.03
2018-08-19T20:49:36.347Z,253.70
2018-08-19T20:52:04.943Z,252.77
2018-08-19T20:54:33.503Z,249.07
2018-08-19T20:57:02.067Z,237.13
2018-08-19T20:59:35.200Z,242.00
2018-08-19T21:02:04.489Z,225.13
2018-08-19T21:04:33.029Z,233.10
2018-08-19T21:07:03.027Z,234.50
2018-08-19T21:09:32.439Z,231.63
2018-08-19T21:12:01.018Z,234.67
2018-08-19T21:14:29.901Z,222.00
2018-08-19T21:16:58.917Z,218.03
2018-08-19T21:19:27.455Z,221.30
2018-08-19T21:21:56.081Z,228.20
2018-08-19T21:24:24.596Z,233.60
2018-08-19T21:26:57.265Z,220.67
2018-08-19T21:29:25.786Z,212.23
2018-08-19T21:31:54.397Z,216.43
2018-08-19T21:34:22.917Z,212.97
2018-08-19T21:36:51.446Z,213.93
2018-08-19T21:39:20.059Z,199.93
2018-08-19T21:41:50.331Z,203.57
2018-08-19T21:45:47.972Z,189.97
2018-08-19T21:48:17.164Z,210.60
2018-08-19T21:50:45.658Z,203.70
2018-08-19T21:53:16.378Z,192.87
2018-08-19T21:55:46.168Z,185.50
2018-08-19T21:58:14.688Z,182.87
2018-08-19T22:00:45.588Z,189.43
2018-08-19T22:03:20.375Z,196.47
2018-08-19T22:05:52.072Z,176.10
2018-08-19T22:08:22.377Z,181.53
2018-08-19T22:10:50.851Z,186.53
2018-08-19T22:13:19.358Z,180.93
2018-08-19T22:15:48.255Z,194.07
2018-08-19T22:18:22.189Z,191.33
2018-08-19T22:21:08.378Z,167.60
2018-08-19T22:23:50.505Z,169.30
2018-08-19T22:26:19.999Z,166.17
2018-08-19T22:29:02.574Z,146.53
2018-08-19T22:31:31.114Z,162.03
2018-08-19T22:33:59.620Z,151.47
2018-08-19T22:36:28.134Z,153.60
2018-08-19T22:38:57.671Z,153.87
2018-08-19T22:41:29.848Z,148.00
2018-08-19T22:43:59.078Z,150.17
2018-08-19T22:46:28.217Z,148.87
2018-08-19T22:48:57.398Z,146.97
2018-08-19T22:51:29.011Z,140.57
2018-08-19T22:53:57.505Z,135.33
2018-08-19T22:56:26.022Z,131.77
2018-08-19T22:58:54.531Z,137.87
2018-08-19T23:01:23.151Z,129.80
2018-08-19T23:03:58.517Z,133.50
2018-08-19T23:06:27.789Z,138.10
2018-08-19T23:08:56.306Z,133.57
2018-08-19T23:11:32.530Z,135.40
2018-08-19T23:14:12.514Z,132.83
2018-08-19T23:16:41.084Z,123.70
2018-08-19T23:19:09.630Z,126.10
2018-08-19T23:21:38.245Z,129.97
2018-08-19T23:24:06.754Z,115.23
2018-08-19T23:26:35.275Z,118.50
2018-08-19T23:29:03.807Z,122.13
2018-08-19T23:31:32.378Z,124.93
2018-08-19T23:34:00.873Z,124.87
2018-08-19T23:36:29.366Z,117.13
2018-08-19T23:38:57.896Z,113.17
2018-08-19T23:41:26.407Z,108.37
2018-08-19T23:43:54.988Z,113.30
2018-08-19T23:46:23.510Z,116.93
2018-08-19T23:48:52.218Z,108.73
2018-08-19T23:51:24.854Z,111.03
2018-08-19T23:53:53.370Z,110.30
2018-08-19T23:56:21.852Z,104.17
2018-08-19T23:58:51.407Z,105.67
